createdAt,value
2022-11-12T00:00:04.083Z,31.58
2022-11-12T00:02:52.457Z,27.02
2022-11-12T00:05:39.246Z,30.92
2022-11-12T00:08:26.721Z,28.00
2022-11-12T00:11:13.718Z,28.35
2022-11-12T00:14:00.356Z,31.83
2022-11-12T00:16:47.302Z,34.83
2022-11-12T00:19:35.838Z,40.92
2022-11-12T00:22:22.514Z,33.85
2022-11-12T00:25:10.317Z,34.65
2022-11-12T00:28:03.495Z,36.53
2022-11-12T00:30:50.233Z,41.50
2022-11-12T00:33:41.897Z,42.13
2022-11-12T00:36:30.351Z,42.03
2022-11-12T00:39:17.484Z,42.15
2022-11-12T00:42:05.155Z,42.13
2022-11-12T00:44:51.976Z,42.85
2022-11-12T00:47:38.580Z,45.97
2022-11-12T00:50:25.642Z,45.13
2022-11-12T00:53:13.786Z,42.05
2022-11-12T00:56:05.746Z,44.55
2022-11-12T00:58:52.606Z,44.08
2022-11-12T01:01:40.451Z,45.65
2022-11-12T01:04:27.127Z,42.40
2022-11-12T01:07:15.940Z,42.38
2022-11-12T01:10:04.618Z,45.30
2022-11-12T01:12:51.275Z,42.72
2022-11-12T01:15:42.753Z,44.80
2022-11-12T01:18:29.813Z,41.30
2022-11-12T01:21:16.734Z,42.90
2022-11-12T01:24:06.822Z,44.80
2022-11-12T01:26:55.223Z,43.25
2022-11-12T01:29:42.019Z,47.28
2022-11-12T01:32:29.065Z,42.65
2022-11-12T01:35:16.122Z,45.05
2022-11-12T01:38:02.886Z,46.92
2022-11-12T01:40:49.860Z,41.67
2022-11-12T01:43:38.372Z,47.20
2022-11-12T01:46:31.230Z,42.42
2022-11-12T01:49:23.915Z,46.45
2022-11-12T01:52:18.634Z,53.08
2022-11-12T01:55:13.414Z,43.45
2022-11-12T01:58:12.556Z,49.25
2022-11-12T02:01:02.109Z,45.30
2022-11-12T02:03:50.541Z,44.00
2022-11-12T02:06:38.893Z,41.15
2022-11-12T02:09:26.531Z,43.70
2022-11-12T02:12:33.500Z,57.30
2022-11-12T02:15:19.811Z,60.28
2022-11-12T02:18:09.279Z,43.20
2022-11-12T02:20:59.345Z,42.08
2022-11-12T02:23:47.347Z,43.15
2022-11-12T02:26:36.985Z,50.60
2022-11-12T02:29:24.261Z,44.10
2022-11-12T02:32:11.090Z,60.70
2022-11-12T02:34:57.885Z,72.28
2022-11-12T02:37:44.907Z,76.40
2022-11-12T02:40:33.188Z,75.03
2022-11-12T02:43:19.954Z,73.75
2022-11-12T02:46:07.140Z,73.68
2022-11-12T02:48:53.790Z,78.22
2022-11-12T02:51:41.004Z,76.85
2022-11-12T02:54:27.735Z,82.72
2022-11-12T02:57:17.891Z,86.05
2022-11-12T03:00:06.788Z,83.85
2022-11-12T03:02:59.885Z,81.05
2022-11-12T03:05:55.057Z,82.75
2022-11-12T03:08:41.971Z,80.20
2022-11-12T03:11:28.754Z,73.50
2022-11-12T03:14:17.215Z,72.75
2022-11-12T03:17:04.108Z,77.00
2022-11-12T03:19:51.095Z,72.90
2022-11-12T03:22:38.060Z,70.75
2022-11-12T03:25:24.885Z,75.38
2022-11-12T03:28:14.569Z,68.00
2022-11-12T03:31:03.243Z,74.50
2022-11-12T03:33:50.323Z,70.38
2022-11-12T03:36:37.545Z,66.00
2022-11-12T03:39:24.357Z,65.32
2022-11-12T03:42:11.621Z,70.35
2022-11-12T03:44:58.278Z,70.28
2022-11-12T03:47:48.629Z,67.43
2022-11-12T03:50:36.900Z,65.15
2022-11-12T03:53:23.544Z,65.05
2022-11-12T03:56:10.360Z,54.58
2022-11-12T03:58:57.160Z,52.13
2022-11-12T04:01:44.219Z,54.03
2022-11-12T04:04:46.474Z,62.83
2022-11-12T04:07:51.189Z,77.78
2022-11-12T04:10:38.285Z,59.28
2022-11-12T04:13:31.337Z,44.35
2022-11-12T04:16:38.682Z,62.08
2022-11-12T04:19:43.418Z,52.72
2022-11-12T04:22:31.582Z,61.22
2022-11-12T04:25:35.014Z,40.17
2022-11-12T04:28:22.016Z,43.08
2022-11-12T04:31:07.823Z,45.08
2022-11-12T04:33:54.561Z,115.90
2022-11-12T04:36:41.355Z,98.03
2022-11-12T04:39:29.775Z,66.32
2022-11-12T04:42:37.029Z,76.50
2022-11-12T04:45:24.058Z,124.93
2022-11-12T04:48:11.164Z,181.95
2022-11-12T04:51:01.132Z,134.23
2022-11-12T04:53:47.913Z,221.57
2022-11-12T04:56:36.190Z,102.55
2022-11-12T04:59:23.141Z,146.73
2022-11-12T05:02:10.180Z,97.38
2022-11-12T05:04:56.783Z,116.97
2022-11-12T05:07:43.812Z,268.85
2022-11-12T05:10:31.757Z,89.22
2022-11-12T05:13:20.246Z,213.68
2022-11-12T05:16:07.426Z,142.05
2022-11-12T05:18:54.045Z,169.70
2022-11-12T05:21:58.491Z,198.52
2022-11-12T05:24:46.099Z,269.75
2022-11-12T05:27:32.823Z,280.02
2022-11-12T05:30:21.687Z,143.52
2022-11-12T05:33:09.074Z,190.55
2022-11-12T05:35:57.644Z,181.13
2022-11-12T05:38:44.224Z,175.05
2022-11-12T05:41:45.209Z,205.18
2022-11-12T05:44:38.271Z,278.58
2022-11-12T05:47:26.682Z,257.13
2022-11-12T05:50:13.513Z,311.38
2022-11-12T05:53:00.557Z,214.10
2022-11-12T05:55:47.609Z,232.55
2022-11-12T05:58:34.687Z,211.75
2022-11-12T06:01:21.862Z,219.38
2022-11-12T06:04:09.998Z,166.35
2022-11-12T06:06:56.726Z,227.10
2022-11-12T06:09:43.537Z,264.77
2022-11-12T06:12:31.250Z,194.93
2022-11-12T06:15:21.116Z,228.35
2022-11-12T06:18:07.952Z,180.00
2022-11-12T06:21:13.328Z,124.18
2022-11-12T06:24:01.449Z,120.28
2022-11-12T06:26:49.830Z,126.03
2022-11-12T06:29:36.582Z,115.95
2022-11-12T06:32:23.542Z,95.10
2022-11-12T06:35:11.124Z,55.53
2022-11-12T06:37:59.169Z,97.32
2022-11-12T06:40:45.746Z,53.08
2022-11-12T06:43:34.194Z,69.05
2022-11-12T06:46:21.261Z,78.97
2022-11-12T06:49:08.494Z,78.72
2022-11-12T06:51:54.994Z,55.25
2022-11-12T06:54:43.450Z,71.75
2022-11-12T06:57:30.201Z,72.07
2022-11-12T07:00:18.778Z,55.20
2022-11-12T07:03:08.733Z,46.58
2022-11-12T07:05:55.782Z,42.15
2022-11-12T07:08:43.239Z,41.20
2022-11-12T07:11:31.713Z,40.55
2022-11-12T07:14:18.316Z,39.17
2022-11-12T07:17:06.467Z,35.70
2022-11-12T07:19:53.431Z,34.22
2022-11-12T07:22:40.661Z,34.10
2022-11-12T07:25:27.436Z,34.80
2022-11-12T07:28:15.903Z,33.08
2022-11-12T07:31:04.671Z,29.50
2022-11-12T07:33:51.399Z,28.65
2022-11-12T07:36:38.431Z,31.13
2022-11-12T07:39:25.405Z,27.55
2022-11-12T07:42:12.157Z,27.15
2022-11-12T07:45:00.404Z,27.10
2022-11-12T07:47:47.139Z,26.10
2022-11-12T07:50:34.131Z,31.35
2022-11-12T07:53:21.206Z,28.58
2022-11-12T07:56:08.853Z,27.88
2022-11-12T07:58:55.572Z,25.98
2022-11-12T08:01:44.996Z,25.08
2022-11-12T08:04:31.701Z,23.92
2022-11-12T08:07:18.680Z,24.40
2022-11-12T08:10:06.702Z,29.92
2022-11-12T08:12:53.351Z,27.98
2022-11-12T08:15:40.404Z,24.35
2022-11-12T08:18:29.869Z,27.88
2022-11-12T08:21:19.339Z,24.63
2022-11-12T08:24:06.895Z,25.13
2022-11-12T08:26:53.816Z,25.77
2022-11-12T08:29:41.030Z,27.10
2022-11-12T08:32:27.928Z,22.17
2022-11-12T08:35:16.353Z,20.88
2022-11-12T08:38:06.612Z,21.50
2022-11-12T08:40:53.538Z,20.92
2022-11-12T08:43:42.182Z,21.63
2022-11-12T08:46:29.397Z,24.25
2022-11-12T08:49:16.289Z,18.98
2022-11-12T08:52:07.623Z,19.52
2022-11-12T08:54:54.345Z,20.55
2022-11-12T08:57:46.127Z,22.38
2022-11-12T09:00:35.673Z,19.23
2022-11-12T09:03:25.340Z,19.05
2022-11-12T09:06:12.078Z,22.13
2022-11-12T09:09:00.476Z,21.67
2022-11-12T09:11:47.175Z,30.38
2022-11-12T09:14:34.172Z,20.25
2022-11-12T09:17:21.042Z,18.63
2022-11-12T09:20:08.919Z,20.38
2022-11-12T09:23:00.984Z,20.00
2022-11-12T09:25:49.606Z,20.42
2022-11-12T09:28:36.639Z,22.77
2022-11-12T09:31:25.709Z,18.08
2022-11-12T09:34:12.715Z,21.35
2022-11-12T09:36:59.467Z,19.98
2022-11-12T09:39:46.509Z,18.90
2022-11-12T09:42:37.343Z,20.05
2022-11-12T09:45:31.301Z,19.50
2022-11-12T09:48:25.020Z,20.73
2022-11-12T09:51:29.845Z,19.00
2022-11-12T09:54:25.333Z,16.90
2022-11-12T09:57:13.446Z,15.82
2022-11-12T10:00:03.459Z,17.67
2022-11-12T10:02:57.467Z,20.52
2022-11-12T10:05:51.005Z,20.50
2022-11-12T10:08:49.170Z,17.63
2022-11-12T10:12:15.448Z,17.20
2022-11-12T10:16:10.357Z,16.65
2022-11-12T10:19:31.957Z,17.10
2022-11-12T10:22:38.570Z,20.85
2022-11-12T10:25:28.159Z,17.77
2022-11-12T10:28:35.624Z,16.50
2022-11-12T10:31:25.542Z,14.65
2022-11-12T10:34:20.035Z,16.02
2022-11-12T10:37:12.055Z,14.45
2022-11-12T10:39:59.330Z,14.40
2022-11-12T10:42:59.662Z,16.92
2022-11-12T10:45:49.013Z,15.43
2022-11-12T10:48:37.417Z,16.25
2022-11-12T10:51:32.300Z,14.13
2022-11-12T10:54:31.719Z,14.07
2022-11-12T10:57:27.342Z,13.07
2022-11-12T11:00:23.495Z,10.88
2022-11-12T11:03:22.659Z,13.95
2022-11-12T11:06:27.312Z,13.25
2022-11-12T11:09:21.761Z,12.20
2022-11-12T11:12:28.290Z,12.43
2022-11-12T11:15:24.645Z,13.23
2022-11-12T11:18:15.593Z,12.32
2022-11-12T11:21:19.301Z,12.35
2022-11-12T11:24:29.698Z,12.05
2022-11-12T11:27:31.302Z,14.10
2022-11-12T11:30:20.792Z,11.02
2022-11-12T11:33:30.949Z,11.85
2022-11-12T11:36:29.947Z,9.07
2022-11-12T11:39:27.546Z,10.85
2022-11-12T11:42:49.911Z,11.38
2022-11-12T11:45:58.882Z,14.00
2022-11-12T11:49:03.480Z,8.98
2022-11-12T11:51:59.953Z,9.52
2022-11-12T11:55:01.814Z,8.93
2022-11-12T11:58:07.882Z,8.20
2022-11-12T12:01:08.351Z,8.68
2022-11-12T12:04:38.382Z,8.05
2022-11-12T12:07:40.399Z,8.70
2022-11-12T12:11:01.233Z,7.97
2022-11-12T12:14:00.796Z,7.97
2022-11-12T12:17:00.772Z,9.63
2022-11-12T12:19:59.155Z,8.55
2022-11-12T12:22:51.733Z,8.02
2022-11-12T12:25:42.653Z,8.93
2022-11-12T12:28:38.906Z,6.63
2022-11-12T12:31:33.840Z,5.32
2022-11-12T12:34:25.807Z,5.85
2022-11-12T12:37:23.296Z,5.63
2022-11-12T12:40:20.343Z,7.97
2022-11-12T12:43:16.811Z,5.85
2022-11-12T12:46:05.053Z,6.03
2022-11-12T12:48:55.455Z,5.80
2022-11-12T12:51:42.528Z,6.07
2022-11-12T12:54:59.889Z,6.47
2022-11-12T12:57:49.875Z,6.47
2022-11-12T13:00:40.342Z,6.93
2022-11-12T13:04:02.476Z,7.90
2022-11-12T13:06:56.095Z,7.28
2022-11-12T13:09:43.202Z,6.05
2022-11-12T13:13:08.236Z,6.25
2022-11-12T13:15:57.116Z,5.00
2022-11-12T13:19:05.554Z,6.05
2022-11-12T13:22:51.733Z,5.82
2022-11-12T13:25:41.400Z,5.90
2022-11-12T13:28:28.567Z,6.40
2022-11-12T13:31:29.151Z,5.70
2022-11-12T13:34:23.599Z,6.47
2022-11-12T13:37:23.708Z,6.75
2022-11-12T13:40:17.209Z,8.38
2022-11-12T13:43:31.417Z,7.28
2022-11-12T13:46:28.981Z,7.63
2022-11-12T13:49:18.490Z,9.57
2022-11-12T13:52:07.429Z,8.07
2022-11-12T13:55:09.631Z,7.35
2022-11-12T13:57:58.398Z,8.30
2022-11-12T14:00:54.124Z,7.57
2022-11-12T14:03:49.656Z,7.53
2022-11-12T14:06:40.317Z,8.02
2022-11-12T14:09:56.612Z,8.73
2022-11-12T14:13:13.446Z,8.20
2022-11-12T14:16:37.391Z,8.50
2022-11-12T14:20:23.715Z,7.80
2022-11-12T14:23:21.590Z,11.02
2022-11-12T14:26:15.928Z,7.20
2022-11-12T14:29:06.010Z,7.57
2022-11-12T14:32:04.750Z,8.40
2022-11-12T14:34:51.975Z,9.40
2022-11-12T14:37:43.639Z,10.90
2022-11-12T14:40:34.514Z,10.68
2022-11-12T14:43:33.551Z,9.13
2022-11-12T14:46:29.332Z,13.82
2022-11-12T14:49:29.325Z,16.35
2022-11-12T14:52:23.214Z,12.00
2022-11-12T14:55:15.009Z,11.18
2022-11-12T14:58:03.068Z,8.88
2022-11-12T15:00:52.612Z,10.43
2022-11-12T15:03:41.206Z,8.70
2022-11-12T15:06:33.971Z,8.27
2022-11-12T15:09:33.852Z,11.48
2022-11-12T15:12:25.579Z,10.55
2022-11-12T15:15:22.755Z,10.52
2022-11-12T15:18:18.979Z,10.75
2022-11-12T15:21:15.648Z,10.35
2022-11-12T15:24:09.242Z,12.27
2022-11-12T15:27:03.705Z,11.07
2022-11-12T15:29:50.479Z,13.48
2022-11-12T15:32:37.674Z,13.95
2022-11-12T15:35:36.994Z,15.38
2022-11-12T15:38:33.348Z,12.57
2022-11-12T15:41:25.206Z,19.27
2022-11-12T15:44:12.663Z,15.35
2022-11-12T15:47:00.024Z,14.55
2022-11-12T15:49:51.959Z,14.75
2022-11-12T15:52:39.129Z,14.15
2022-11-12T15:55:28.703Z,15.90
2022-11-12T15:58:21.202Z,16.13
2022-11-12T16:01:08.530Z,16.90
2022-11-12T16:03:57.101Z,17.77
2022-11-12T16:06:48.819Z,20.33
2022-11-12T16:09:36.472Z,19.35
2022-11-12T16:12:25.522Z,18.73
2022-11-12T16:15:19.802Z,19.35
2022-11-12T16:18:07.446Z,18.58
2022-11-12T16:20:56.226Z,16.63
2022-11-12T16:23:46.255Z,17.10
2022-11-12T16:26:34.874Z,17.55
2022-11-12T16:29:23.598Z,17.30
2022-11-12T16:32:15.384Z,17.35
2022-11-12T16:35:02.611Z,13.35
2022-11-12T16:37:50.129Z,18.00
2022-11-12T16:40:39.056Z,18.38
2022-11-12T16:43:26.395Z,13.63
2022-11-12T16:46:29.051Z,16.27
2022-11-12T16:49:21.222Z,16.60
2022-11-12T16:52:12.425Z,15.02
2022-11-12T16:55:04.285Z,14.02
2022-11-12T16:57:52.327Z,18.08
2022-11-12T17:00:40.095Z,14.35
2022-11-12T17:03:28.852Z,19.42
2022-11-12T17:06:17.733Z,16.63
2022-11-12T17:09:06.326Z,15.45
2022-11-12T17:11:53.547Z,15.43
2022-11-12T17:14:40.622Z,15.00
2022-11-12T17:17:27.918Z,16.88
2022-11-12T17:20:16.540Z,16.17
2022-11-12T17:23:03.797Z,18.15
2022-11-12T17:26:00.888Z,18.17
2022-11-12T17:28:48.520Z,18.02
2022-11-12T17:31:37.752Z,20.30
2022-11-12T17:34:25.371Z,27.60
2022-11-12T17:37:15.368Z,24.52
2022-11-12T17:40:02.511Z,21.80
2022-11-12T17:42:49.836Z,19.08
2022-11-12T17:45:37.044Z,21.45
2022-11-12T17:48:25.942Z,21.30
2022-11-12T17:51:16.078Z,27.00
2022-11-12T17:54:05.105Z,22.27
2022-11-12T17:56:52.360Z,22.13
2022-11-12T17:59:39.527Z,18.65
2022-11-12T18:02:26.415Z,22.15
2022-11-12T18:05:13.364Z,26.30
2022-11-12T18:08:00.174Z,18.55
2022-11-12T18:10:48.600Z,16.95
2022-11-12T18:13:37.906Z,17.95
2022-11-12T18:16:30.797Z,18.17
2022-11-12T18:19:18.131Z,18.38
2022-11-12T18:22:05.205Z,20.80
2022-11-12T18:24:52.970Z,22.15
2022-11-12T18:27:41.421Z,12.45
2022-11-12T18:30:35.003Z,13.02
2022-11-12T18:33:22.597Z,14.15
2022-11-12T18:36:12.464Z,12.68
2022-11-12T18:39:05.452Z,14.90
2022-11-12T18:41:52.648Z,19.73
2022-11-12T18:44:48.871Z,17.25
2022-11-12T18:47:36.129Z,19.90
2022-11-12T18:50:25.865Z,22.90
2022-11-12T18:53:12.986Z,22.30
2022-11-12T18:56:03.529Z,25.55
2022-11-12T18:58:54.217Z,29.75
2022-11-12T19:01:43.868Z,37.05
2022-11-12T19:04:38.774Z,33.10
2022-11-12T19:07:28.330Z,30.17
2022-11-12T19:10:46.620Z,31.75
2022-11-12T19:13:27.706Z,27.13
2022-11-12T19:16:22.962Z,26.52
2022-11-12T19:19:15.316Z,28.70
2022-11-12T19:22:02.882Z,31.52
2022-11-12T19:25:00.308Z,29.30
2022-11-12T19:27:48.028Z,26.80
2022-11-12T19:30:36.471Z,28.15
2022-11-12T19:33:23.520Z,27.77
2022-11-12T19:36:16.946Z,31.48
2022-11-12T19:39:06.500Z,30.88
2022-11-12T19:41:53.548Z,28.42
2022-11-12T19:44:41.036Z,27.50
2022-11-12T19:47:29.405Z,29.73
2022-11-12T19:50:18.806Z,29.00
2022-11-12T19:53:13.715Z,29.00
2022-11-12T19:56:04.152Z,27.40
2022-11-12T19:58:54.994Z,32.85
2022-11-12T20:01:41.869Z,31.55
2022-11-12T20:04:29.380Z,27.25
2022-11-12T20:07:16.868Z,28.70
2022-11-12T20:10:06.803Z,29.40
2022-11-12T20:12:56.690Z,27.60
2022-11-12T20:15:45.108Z,30.00
2022-11-12T20:18:39.958Z,32.88
2022-11-12T20:21:30.304Z,36.22
2022-11-12T20:24:19.357Z,34.63
2022-11-12T20:27:13.775Z,31.35
2022-11-12T20:30:01.089Z,31.45
2022-11-12T20:32:51.079Z,35.20
2022-11-12T20:35:39.967Z,43.40
2022-11-12T20:38:29.704Z,38.65
2022-11-12T20:41:22.222Z,32.67
2022-11-12T20:44:11.696Z,31.92
2022-11-12T20:47:01.535Z,29.30
2022-11-12T20:49:48.506Z,27.77
2022-11-12T20:52:37.828Z,30.00
2022-11-12T20:55:24.966Z,30.70
2022-11-12T20:58:11.978Z,31.23
2022-11-12T21:01:08.493Z,33.15
2022-11-12T21:03:57.869Z,30.15
2022-11-12T21:06:45.247Z,35.70
2022-11-12T21:09:32.829Z,34.83
2022-11-12T21:12:19.998Z,35.38
2022-11-12T21:15:10.305Z,38.13
2022-11-12T21:18:02.384Z,33.17
2022-11-12T21:20:52.620Z,37.03
2022-11-12T21:23:43.524Z,33.03
2022-11-12T21:26:31.198Z,32.38
2022-11-12T21:29:20.487Z,38.92
2022-11-12T21:32:07.434Z,32.97
2022-11-12T21:34:56.311Z,35.08
2022-11-12T21:37:50.512Z,37.95
2022-11-12T21:40:37.644Z,33.28
2022-11-12T21:43:35.146Z,34.33
2022-11-12T21:46:24.788Z,37.00
2022-11-12T21:49:12.076Z,33.40
2022-11-12T21:52:03.649Z,32.97
2022-11-12T21:54:50.911Z,34.47
2022-11-12T21:57:40.288Z,38.25
2022-11-12T22:00:47.120Z,36.38
2022-11-12T22:03:36.223Z,32.10
2022-11-12T22:06:28.344Z,28.65
2022-11-12T22:09:17.205Z,35.03
2022-11-12T22:12:06.079Z,32.28
2022-11-12T22:14:54.648Z,32.08
2022-11-12T22:17:44.051Z,32.63
2022-11-12T22:20:32.382Z,30.17
2022-11-12T22:23:21.414Z,39.78
2022-11-12T22:26:15.786Z,39.47
2022-11-12T22:29:14.876Z,40.17
2022-11-12T22:32:02.014Z,39.70
2022-11-12T22:34:49.617Z,40.63
2022-11-12T22:37:36.710Z,36.45
2022-11-12T22:40:24.926Z,35.72
2022-11-12T22:43:13.211Z,37.47
2022-11-12T22:46:06.223Z,33.50
2022-11-12T22:48:53.276Z,33.03
2022-11-12T22:51:40.524Z,38.08
2022-11-12T22:54:29.947Z,39.35
2022-11-12T22:57:17.196Z,37.13
2022-11-12T23:00:21.537Z,36.95
2022-11-12T23:03:08.667Z,38.35
2022-11-12T23:05:59.721Z,36.92
2022-11-12T23:08:47.479Z,34.58
2022-11-12T23:11:35.847Z,40.58
2022-11-12T23:14:23.125Z,36.15
2022-11-12T23:17:12.997Z,36.65
2022-11-12T23:20:00.088Z,36.97
2022-11-12T23:22:47.091Z,42.65
2022-11-12T23:25:37.040Z,40.63
2022-11-12T23:28:24.186Z,43.53
2022-11-12T23:31:15.061Z,38.08
2022-11-12T23:34:03.470Z,40.90
2022-11-12T23:36:50.277Z,43.38
2022-11-12T23:39:37.229Z,40.00
2022-11-12T23:42:24.348Z,38.97
2022-11-12T23:45:14.165Z,42.97
2022-11-12T23:48:01.230Z,41.33
2022-11-12T23:50:51.214Z,43.67
2022-11-12T23:53:39.846Z,41.88
2022-11-12T23:56:27.114Z,40.33
2022-11-12T23:59:13.743Z,43.58
